Flight Track Log - Related Links

Times and Time Zones

All times are in EDT time to prevent confusion due to time zone crossing. See the CMP204 flight status page for this flight to view local times or setup timezone preferences in your user account.

Time Position Orientation Groundspeed Altitude Reporting Facility
EDT Latitude Longitude Course Direction KTS MPH feet Rate Location/Type
Thu 01:33:59 AM -15.8630 -47.9230 84° East 70 81  Level FlightAware ADS-B
Thu 01:34:25 AM -15.8620 -47.9090 86° East 165 190 5,018 Level FlightAware ADS-B
Thu 01:34:54 AM -15.8610 -47.8830 88° East 170 196 4,600 2,807 Climbing FlightAware ADS-B
Thu 01:37:00 AM -15.7266 -48.0716 306° West  Level Estimated
Thu 01:37:16 AM -15.9310 -47.8240 306° West 291 335 8,000  Level FlightAware ADS-B
Thu 01:37:55 AM -15.9580 -47.8710 239° Southwest 296 341 10,000 3,310 Climbing FlightAware ADS-B
Thu 01:38:14 AM -15.9490 -47.8960 291° West 285 328 11,200 3,443 Climbing FlightAware ADS-B
Thu 01:38:56 AM -15.9030 -47.9630 306° West 304 350 13,500 1,798 Climbing FlightAware ADS-B
Thu 01:41:00 AM -15.7703 -48.1484 307° West  Level Estimated
Thu 01:42:00 AM -15.7061 -48.2380 307° West  Level Estimated
Thu 01:42:21 AM -15.7220 -48.2220 307° West 399 459 18,600  Level FlightAware ADS-B
Thu 01:43:06 AM -15.6810 -48.2810 306° West 399 459 18,600 294 Level FlightAware ADS-B
Thu 01:44:03 AM -15.7100 -48.2390 126° Southeast 397 457 19,100 1,175 Climbing FlightAware ADS-B
Thu 01:44:43 AM -15.6640 -48.3050 306° West 400 460 20,500 1,109 Climbing FlightAware ADS-B
Thu 01:45:35 AM -15.6480 -48.3270 307° West 405 466 20,800 811 Climbing FlightAware ADS-B
Thu 01:47:11 AM -15.5700 -48.4380 306° West 423 487 22,500 1,987 Climbing FlightAware ADS-B
Thu 01:48:06 AM -15.3580 -48.7370 306° West 456 525 25,800 3,273 Climbing FlightAware ADS-B
Thu 01:49:01 AM -15.2390 -48.9050 306° West 463 533 28,500 2,362 Climbing FlightAware ADS-B
Thu 01:49:40 AM -15.1670 -49.0070 306° West 464 534 29,500 698 Climbing FlightAware ADS-B
Thu 01:50:27 AM -15.1160 -49.0790 306° West 464 534 29,500  Level FlightAware ADS-B
Thu 01:51:05 AM -15.0750 -49.1370 306° West 464 534 29,500  Level FlightAware ADS-B
Thu 01:52:30 AM -14.9840 -49.2670 306° West 464 534 29,500 42 Level FlightAware ADS-B
Thu 01:55:00 AM -14.8221 -49.4892 307° West  Level Estimated
Thu 01:56:00 AM -14.7573 -49.5780 307° West  Level Estimated
Thu 01:57:00 AM -14.6925 -49.6667 307° West  Level Estimated
Thu 01:58:00 AM -14.6276 -49.7554 307° West  Level Estimated
Thu 01:59:00 AM -14.5627 -49.8440 307° West  Level Estimated
Thu 02:00:00 AM -14.4978 -49.9325 307° West  Level Estimated
Thu 02:01:00 AM -14.4328 -50.0211 307° West  Level Estimated
Thu 02:02:00 AM -14.3678 -50.1095 307° West  Level Estimated
Thu 02:03:00 AM -14.3027 -50.1980 307° West  Level Estimated
Thu 02:04:00 AM -14.2377 -50.2863 307° West  Level Estimated
Thu 02:05:00 AM -14.1726 -50.3746 307° West  Level Estimated
Thu 02:06:00 AM -14.1074 -50.4629 307° West  Level Estimated
Thu 02:07:00 AM -14.0422 -50.5511 307° West  Level Estimated
Thu 02:08:00 AM -13.9770 -50.6393 307° West  Level Estimated
Thu 02:09:00 AM -13.9118 -50.7274 307° West  Level Estimated
Thu 02:10:00 AM -13.8465 -50.8154 307° West  Level Estimated
Thu 02:11:00 AM -13.7812 -50.9034 307° West  Level Estimated
Thu 02:12:00 AM -13.7159 -50.9914 307° West  Level Estimated
Thu 02:13:00 AM -13.6506 -51.0793 307° West  Level Estimated
Thu 02:14:00 AM -13.5852 -51.1672 307° West  Level Estimated
Thu 02:15:00 AM -13.5197 -51.2550 307° West  Level Estimated
Thu 02:16:00 AM -13.4543 -51.3428 307° West  Level Estimated
Thu 02:17:00 AM -13.3888 -51.4305 307° West  Level Estimated
Thu 02:18:00 AM -13.3233 -51.5182 308° West  Level Estimated
Thu 02:19:00 AM -13.2578 -51.6058 308° West  Level Estimated
Thu 02:20:00 AM -13.1922 -51.6934 308° West  Level Estimated
Thu 02:21:00 AM -13.1266 -51.7809 308° West  Level Estimated
Thu 02:22:00 AM -13.0610 -51.8684 308° West  Level Estimated
Thu 02:23:00 AM -12.9953 -51.9558 308° West  Level Estimated
Thu 02:24:00 AM -12.9296 -52.0432 308° West  Level Estimated
Thu 02:25:00 AM -12.8639 -52.1306 308° West  Level Estimated
Thu 02:26:00 AM -12.7982 -52.2179 308° West  Level Estimated
Thu 02:27:00 AM -12.7324 -52.3051 308° West  Level Estimated
Thu 02:28:00 AM -12.6666 -52.3923 308° West  Level Estimated
Thu 02:29:00 AM -12.6007 -52.4795 308° West  Level Estimated
Thu 02:30:00 AM -12.5349 -52.5666 308° West  Level Estimated
Thu 02:31:00 AM -12.4690 -52.6537 308° West  Level Estimated
Thu 02:32:00 AM -12.4031 -52.7407 308° West  Level Estimated
Thu 02:33:00 AM -12.3371 -52.8277 308° West  Level Estimated
Thu 02:34:00 AM -12.2711 -52.9146 308° West  Level Estimated
Thu 02:35:00 AM -12.2051 -53.0015 308° West  Level Estimated
Thu 02:36:00 AM -12.1391 -53.0884 308° West  Level Estimated
Thu 02:37:00 AM -12.0731 -53.1752 308° West  Level Estimated
Thu 02:38:00 AM -12.0070 -53.2620 308° West  Level Estimated
Thu 02:39:00 AM -11.9409 -53.3487 308° West  Level Estimated
Thu 02:40:00 AM -11.8748 -53.4354 308° West  Level Estimated
Thu 02:41:00 AM -11.8086 -53.5220 308° West  Level Estimated
Thu 02:42:00 AM -11.7424 -53.6086 308° West  Level Estimated
Thu 02:43:00 AM -11.6762 -53.6952 308° West  Level Estimated
Thu 02:44:00 AM -11.6100 -53.7817 308° West  Level Estimated
Thu 02:45:00 AM -11.5437 -53.8682 308° West  Level Estimated
Thu 02:46:00 AM -11.4774 -53.9546 308° West  Level Estimated
Thu 02:47:00 AM -11.4111 -54.0410 308° West  Level Estimated
Thu 02:48:00 AM -11.3447 -54.1274 308° West  Level Estimated
Thu 02:49:00 AM -11.2784 -54.2137 308° West  Level Estimated
Thu 02:50:00 AM -11.2120 -54.3000 308° West  Level Estimated
Thu 02:51:00 AM -11.1456 -54.3862 308° West  Level Estimated
Thu 02:52:00 AM -11.0791 -54.4724 308° West  Level Estimated
Thu 02:53:00 AM -11.0126 -54.5586 308° West  Level Estimated
Thu 02:54:00 AM -10.9462 -54.6447 308° West  Level Estimated
Thu 02:55:00 AM -10.8797 -54.7308 308° West  Level Estimated
Thu 02:56:00 AM -10.8131 -54.8168 308° West  Level Estimated
Thu 02:57:00 AM -10.7465 -54.9028 308° West  Level Estimated
Thu 02:58:00 AM -10.6800 -54.9888 308° West  Level Estimated
Thu 02:59:00 AM -10.6134 -55.0747 308° West  Level Estimated
Thu 03:00:00 AM -10.5467 -55.1606 308° West  Level Estimated
Thu 03:01:00 AM -10.4801 -55.2465 308° West  Level Estimated
Thu 03:02:00 AM -10.4134 -55.3323 308° West  Level Estimated
Thu 03:03:00 AM -10.3467 -55.4181 308° West  Level Estimated
Thu 03:04:00 AM -10.2800 -55.5038 308° West  Level Estimated
Thu 03:05:00 AM -10.2132 -55.5895 308° West  Level Estimated
Thu 03:06:00 AM -10.1465 -55.6752 308° West  Level Estimated
Thu 03:07:00 AM -10.0797 -55.7608 308° West  Level Estimated
Thu 03:08:00 AM -10.0129 -55.8464 308° West  Level Estimated
Thu 03:09:00 AM -9.9460 -55.9320 308° West  Level Estimated
Thu 03:10:00 AM -9.8792 -56.0175 308° West  Level Estimated
Thu 03:11:00 AM -9.8123 -56.1030 308° West  Level Estimated
Thu 03:12:00 AM -9.7454 -56.1885 308° West  Level Estimated
Thu 03:13:00 AM -9.6785 -56.2739 308° West  Level Estimated
Thu 03:14:00 AM -9.6115 -56.3593 308° West  Level Estimated
Thu 03:15:00 AM -9.5446 -56.4447 308° West  Level Estimated
Thu 03:16:00 AM -9.4776 -56.5300 309° West  Level Estimated
Thu 03:17:00 AM -9.4106 -56.6153 309° West  Level Estimated
Thu 03:18:00 AM -9.3436 -56.7005 309° West  Level Estimated
Thu 03:19:00 AM -9.2765 -56.7858 309° West  Level Estimated
Thu 03:20:00 AM -9.2095 -56.8709 309° West  Level Estimated
Thu 03:21:00 AM -9.1424 -56.9561 309° West  Level Estimated
Thu 03:22:00 AM -9.0753 -57.0412 309° West  Level Estimated
Thu 03:23:00 AM -9.0082 -57.1263 309° West  Level Estimated
Thu 03:24:00 AM -8.9410 -57.2114 309° West  Level Estimated
Thu 03:25:00 AM -8.8739 -57.2964 309° West  Level Estimated
Thu 03:26:00 AM -8.8067 -57.3814 309° West  Level Estimated
Thu 03:27:00 AM -8.7395 -57.4664 309° West  Level Estimated
Thu 03:28:00 AM -8.6723 -57.5513 309° West  Level Estimated
Thu 03:29:00 AM -8.6050 -57.6362 309° West  Level Estimated
Thu 03:30:00 AM -8.5378 -57.7211 309° West  Level Estimated
Thu 03:31:00 AM -8.4705 -57.8060 309° West  Level Estimated
Thu 03:32:00 AM -8.4032 -57.8908 309° West  Level Estimated
Thu 03:33:00 AM -8.3359 -57.9756 309° West  Level Estimated
Thu 03:34:00 AM -8.2686 -58.0603 309° West  Level Estimated
Thu 03:35:00 AM -8.2012 -58.1451 309° West  Level Estimated
Thu 03:36:00 AM -8.1338 -58.2298 309° West  Level Estimated
Thu 03:37:00 AM -8.0665 -58.3145 309° West  Level Estimated
Thu 03:38:00 AM -7.9991 -58.3991 309° West  Level Estimated
Thu 03:39:00 AM -7.9316 -58.4837 309° West  Level Estimated
Thu 03:40:00 AM -7.8642 -58.5683 309° West  Level Estimated
Thu 03:41:00 AM -7.7968 -58.6529 309° West  Level Estimated
Thu 03:42:00 AM -7.7293 -58.7374 309° West  Level Estimated
Thu 03:43:00 AM -7.6618 -58.8219 309° West  Level Estimated
Thu 03:44:00 AM -7.5943 -58.9064 309° West  Level Estimated
Thu 03:45:00 AM -7.5268 -58.9909 309° West  Level Estimated
Thu 03:46:00 AM -7.4592 -59.0753 309° West  Level Estimated
Thu 03:47:00 AM -7.3917 -59.1597 309° West  Level Estimated
Thu 03:48:00 AM -7.3241 -59.2441 309° West  Level Estimated
Thu 03:49:00 AM -7.2565 -59.3284 309° West  Level Estimated
Thu 03:50:00 AM -7.1889 -59.4128 309° West  Level Estimated
Thu 03:51:00 AM -7.1213 -59.4971 309° West  Level Estimated
Thu 03:52:00 AM -7.0537 -59.5813 309° West  Level Estimated
Thu 03:53:00 AM -6.9861 -59.6656 309° West  Level Estimated
Thu 03:54:00 AM -6.9184 -59.7498 309° West  Level Estimated
Thu 03:55:00 AM -6.8507 -59.8340 309° West  Level Estimated
Thu 03:56:00 AM -6.7830 -59.9182 309° West  Level Estimated
Thu 03:57:00 AM -6.7153 -60.0024 309° West  Level Estimated
Thu 03:58:00 AM -6.6476 -60.0865 309° West  Level Estimated
Thu 03:59:00 AM -6.5799 -60.1706 309° West  Level Estimated
Thu 04:00:00 AM -6.5121 -60.2547 309° West  Level Estimated
Thu 04:01:00 AM -6.4444 -60.3387 309° West  Level Estimated
Thu 04:02:00 AM -6.3766 -60.4228 309° West  Level Estimated
Thu 04:03:00 AM -6.3088 -60.5068 309° West  Level Estimated
Thu 04:04:00 AM -6.2410 -60.5908 309° West  Level Estimated
Thu 04:05:00 AM -6.1732 -60.6748 309° West  Level Estimated
Thu 04:06:00 AM -6.1054 -60.7588 309° West  Level Estimated
Thu 04:07:00 AM -6.0375 -60.8427 309° West  Level Estimated
Thu 04:08:00 AM -5.9697 -60.9266 309° West  Level Estimated
Thu 04:09:00 AM -5.9018 -61.0105 309° West  Level Estimated
Thu 04:10:00 AM -5.8340 -61.0943 309° West  Level Estimated
Thu 04:11:00 AM -5.7661 -61.1782 309° West  Level Estimated
Thu 04:12:00 AM -5.6982 -61.2620 309° West  Level Estimated
Thu 04:13:00 AM -5.6302 -61.3458 309° West  Level Estimated
Thu 04:14:00 AM -5.5623 -61.4296 309° West  Level Estimated
Thu 04:15:00 AM -5.4944 -61.5134 309° West  Level Estimated
Thu 04:16:00 AM -5.4264 -61.5971 309° West  Level Estimated
Thu 04:17:00 AM -5.3585 -61.6809 309° West  Level Estimated
Thu 04:18:00 AM -5.2905 -61.7646 309° West  Level Estimated
Thu 04:19:00 AM -5.2225 -61.8483 309° West  Level Estimated
Thu 04:20:00 AM -5.1545 -61.9320 309° West  Level Estimated
Thu 04:21:00 AM -5.0865 -62.0156 309° West  Level Estimated
Thu 04:22:00 AM -5.0185 -62.0993 309° West  Level Estimated
Thu 04:23:00 AM -4.9505 -62.1829 309° West  Level Estimated
Thu 04:24:00 AM -4.8824 -62.2665 309° West  Level Estimated
Thu 04:25:00 AM -4.8144 -62.3501 309° West  Level Estimated
Thu 04:26:00 AM -4.7463 -62.4337 309° West  Level Estimated
Thu 04:27:00 AM -4.6782 -62.5173 309° West  Level Estimated
Thu 04:28:00 AM -4.6102 -62.6008 309° West  Level Estimated
Thu 04:29:00 AM -4.5421 -62.6843 309° West  Level Estimated
Thu 04:30:00 AM -4.4740 -62.7678 309° West  Level Estimated
Thu 04:31:00 AM -4.4059 -62.8513 309° West  Level Estimated
Thu 04:32:00 AM -4.3377 -62.9348 309° West  Level Estimated
Thu 04:33:00 AM -4.2696 -63.0183 309° West  Level Estimated
Thu 04:34:00 AM -4.2015 -63.1017 309° West  Level Estimated
Thu 04:35:00 AM -4.1333 -63.1852 309° West  Level Estimated
Thu 04:36:00 AM -4.0652 -63.2686 309° West  Level Estimated
Thu 04:37:00 AM -3.9970 -63.3520 309° West  Level Estimated
Thu 04:38:00 AM -3.9289 -63.4354 309° West  Level Estimated
Thu 04:39:00 AM -3.8607 -63.5188 309° West  Level Estimated
Thu 04:40:00 AM -3.7925 -63.6021 309° West  Level Estimated
Thu 04:41:00 AM -3.7243 -63.6855 309° West  Level Estimated
Thu 04:42:00 AM -3.6561 -63.7688 309° West  Level Estimated
Thu 04:43:00 AM -3.5879 -63.8521 309° West  Level Estimated
Thu 04:44:00 AM -3.5197 -63.9355 309° West  Level Estimated
Thu 04:45:00 AM -3.4515 -64.0188 309° West  Level Estimated
Thu 04:46:00 AM -3.3832 -64.1021 309° West  Level Estimated
Thu 04:47:00 AM -3.3150 -64.1853 309° West  Level Estimated
Thu 04:48:00 AM -3.2467 -64.2686 309° West  Level Estimated
Thu 04:49:00 AM -3.1785 -64.3519 309° West  Level Estimated
Thu 04:50:00 AM -3.1102 -64.4351 309° West  Level Estimated
Thu 04:51:00 AM -3.0420 -64.5183 309° West  Level Estimated
Thu 04:52:00 AM -2.9737 -64.6016 309° West  Level Estimated
Thu 04:53:00 AM -2.9054 -64.6848 309° West  Level Estimated
Thu 04:54:00 AM -2.8371 -64.7680 309° West  Level Estimated
Thu 04:55:00 AM -2.7688 -64.8512 309° West  Level Estimated
Thu 04:56:00 AM -2.7005 -64.9343 309° West  Level Estimated
Thu 04:57:00 AM -2.6322 -65.0175 309° West  Level Estimated
Thu 04:58:00 AM -2.5639 -65.1007 309° West  Level Estimated
Thu 04:59:00 AM -2.4956 -65.1838 309° West  Level Estimated
Thu 05:00:00 AM -2.4273 -65.2670 309° West  Level Estimated
Thu 05:01:00 AM -2.3590 -65.3501 309° West  Level Estimated
Thu 05:02:00 AM -2.2906 -65.4333 309° West  Level Estimated
Thu 05:03:00 AM -2.2223 -65.5164 309° West  Level Estimated
Thu 05:04:00 AM -2.1540 -65.5995 309° West  Level Estimated
Thu 05:05:00 AM -2.0856 -65.6826 309° West  Level Estimated
Thu 05:06:00 AM -2.0173 -65.7657 309° West  Level Estimated
Thu 05:07:00 AM -1.9489 -65.8488 309° West  Level Estimated
Thu 05:08:00 AM -1.8806 -65.9319 309° West  Level Estimated
Thu 05:09:00 AM -1.8122 -66.0150 309° West  Level Estimated
Thu 05:10:00 AM -1.7439 -66.0980 309° West  Level Estimated
Thu 05:11:00 AM -1.6755 -66.1811 309° West  Level Estimated
Thu 05:12:00 AM -1.6071 -66.2642 309° West  Level Estimated
Thu 05:13:00 AM -1.5388 -66.3472 309° West  Level Estimated
Thu 05:14:00 AM -1.4704 -66.4303 309° West  Level Estimated
Thu 05:15:00 AM -1.4020 -66.5133 309° West  Level Estimated
Thu 05:16:00 AM -1.3336 -66.5964 309° West  Level Estimated
Thu 05:17:00 AM -1.2652 -66.6794 309° West  Level Estimated
Thu 05:18:00 AM -1.1968 -66.7624 309° West  Level Estimated
Thu 05:19:00 AM -1.1285 -66.8455 309° West  Level Estimated
Thu 05:20:00 AM -1.0601 -66.9285 309° West  Level Estimated
Thu 05:21:00 AM -0.9917 -67.0115 309° West  Level Estimated
Thu 05:22:00 AM -0.9233 -67.0945 309° West  Level Estimated
Thu 05:23:00 AM -0.8549 -67.1776 309° West  Level Estimated
Thu 05:24:00 AM -0.7865 -67.2606 309° West  Level Estimated
Thu 05:25:00 AM -0.7181 -67.3436 309° West  Level Estimated
Thu 05:26:00 AM -0.6497 -67.4266 309° West  Level Estimated
Thu 05:27:00 AM -0.5813 -67.5096 309° West  Level Estimated
Thu 05:28:00 AM -0.5128 -67.5926 309° West  Level Estimated
Thu 05:29:00 AM -0.4444 -67.6756 309° West  Level Estimated
Thu 05:30:00 AM -0.3760 -67.7586 309° West  Level Estimated
Thu 05:31:00 AM -0.3076 -67.8416 309° West  Level Estimated
Thu 05:32:00 AM -0.2392 -67.9246 309° West  Level Estimated
Thu 05:33:00 AM -0.1708 -68.0076 309° West  Level Estimated
Thu 05:34:00 AM -0.1024 -68.0906 309° West  Level Estimated
Thu 05:35:00 AM -0.0340 -68.1736 309° West  Level Estimated
Thu 05:36:00 AM 0.0344 -68.2566 309° West  Level Estimated
Thu 05:37:00 AM 0.1028 -68.3396 309° West  Level Estimated
Thu 05:38:00 AM 0.1713 -68.4226 309° West  Level Estimated
Thu 05:39:00 AM 0.2397 -68.5056 309° West  Level Estimated
Thu 05:40:00 AM 0.3081 -68.5886 309° West  Level Estimated
Thu 05:41:00 AM 0.3765 -68.6716 309° West  Level Estimated
Thu 05:42:00 AM 0.4449 -68.7546 309° West  Level Estimated
Thu 05:43:00 AM 0.5133 -68.8376 309° West  Level Estimated
Thu 05:44:00 AM 0.5817 -68.9206 309° West  Level Estimated
Thu 05:45:00 AM 0.6501 -69.0036 309° West  Level Estimated
Thu 05:46:00 AM 0.7185 -69.0866 309° West  Level Estimated
Thu 05:47:00 AM 0.7869 -69.1696 309° West  Level Estimated
Thu 05:48:00 AM 0.8553 -69.2526 309° West  Level Estimated
Thu 05:49:00 AM 0.9237 -69.3356 309° West  Level Estimated
Thu 05:50:00 AM 0.9921 -69.4186 309° West  Level Estimated
Thu 05:51:00 AM 1.0605 -69.5016 309° West  Level Estimated
Thu 05:52:00 AM 1.1289 -69.5847 309° West  Level Estimated
Thu 05:53:00 AM 1.1973 -69.6677 309° West  Level Estimated
Thu 05:54:00 AM 1.2657 -69.7507 309° West  Level Estimated
Thu 05:55:00 AM 1.3341 -69.8338 309° West  Level Estimated
Thu 05:56:00 AM 1.4025 -69.9168 309° West  Level Estimated
Thu 05:57:00 AM 1.4708 -69.9999 309° West  Level Estimated
Thu 05:58:00 AM 1.5392 -70.0829 309° West  Level Estimated
Thu 05:59:00 AM 1.6076 -70.1660 309° West  Level Estimated
Thu 06:00:00 AM 1.6760 -70.2490 309° West  Level Estimated
Thu 06:00:55 AM 3.7720 -73.0530 309° West 437 503 40,000  Level FlightAware ADS-B
Thu 06:01:00 AM 1.7443 -70.3321 309° West  Level Estimated
Thu 06:01:39 AM 3.8320 -73.1200 312° West 436 502 40,000  Level FlightAware ADS-B
Thu 06:02:19 AM 3.8860 -73.1800 312° West 435 501 40,000  Level FlightAware ADS-B
Thu 06:02:59 AM 3.9390 -73.2390 312° West 434 499 40,000  Level FlightAware ADS-B
Thu 06:03:41 AM 3.9960 -73.3030 312° West 432 497 40,000  Level FlightAware ADS-B
Thu 06:04:23 AM 4.0510 -73.3640 312° West 432 497 40,000  Level FlightAware ADS-B
Thu 06:05:05 AM 4.1060 -73.4290 310° West 431 496 40,000  Level FlightAware ADS-B
Thu 06:05:50 AM 4.1610 -73.4960 309° West 430 495 40,000  Level FlightAware ADS-B
Thu 06:06:31 AM 4.2140 -73.5590 310° West 429 494 40,000  Level FlightAware ADS-B
Thu 06:07:11 AM 4.2660 -73.6220 310° West 428 493 40,000  Level FlightAware ADS-B
Thu 06:07:55 AM 4.3210 -73.6890 309° West 426 490 40,000  Level FlightAware ADS-B
Thu 06:08:37 AM 4.3750 -73.7530 310° West 424 488 40,000  Level FlightAware ADS-B
Thu 06:09:13 AM 4.4200 -73.8080 309° West 423 487 40,000  Level FlightAware ADS-B
Thu 06:10:03 AM 4.4820 -73.8830 310° West 421 484 40,000  Level FlightAware ADS-B
Thu 06:10:59 AM 4.5370 -73.9490 310° West 421 484 40,000  Level FlightAware ADS-B
Thu 06:11:46 AM 4.5540 -73.9700 309° West 422 486 40,000  Level FlightAware ADS-B
Thu 06:12:36 AM 4.6710 -74.1160 309° West 426 490 40,000  Level FlightAware ADS-B
Thu 06:13:18 AM 4.7200 -74.1820 307° West 427 491 40,000  Level FlightAware ADS-B
Thu 06:13:58 AM 4.7670 -74.2430 308° West 426 490 40,000  Level FlightAware ADS-B
Thu 06:14:40 AM 4.8190 -74.3110 308° West 427 491 40,000  Level FlightAware ADS-B
Thu 06:15:30 AM 4.8780 -74.3890 307° West 426 490 40,000  Level FlightAware ADS-B
Thu 06:16:14 AM 4.9310 -74.4580 308° West 426 490 40,000  Level FlightAware ADS-B
Thu 06:16:54 AM 4.9790 -74.5210 307° West 426 490 40,000  Level FlightAware ADS-B
Thu 06:17:36 AM 5.0300 -74.5880 307° West 425 489 40,000  Level FlightAware ADS-B
Thu 06:18:17 AM 5.0780 -74.6510 307° West 424 488 40,000  Level FlightAware ADS-B
Thu 06:18:59 AM 5.1280 -74.7170 307° West 424 488 40,000  Level FlightAware ADS-B
Thu 06:19:45 AM 5.1830 -74.7890 307° West 424 488 40,000  Level FlightAware ADS-B
Thu 06:21:07 AM 5.2810 -74.9180 307° West 423 487 40,000  Level FlightAware ADS-B
Thu 06:21:51 AM 5.3330 -74.9870 307° West 422 486 40,000  Level FlightAware ADS-B
Thu 06:22:31 AM 5.3800 -75.0480 308° West 422 486 40,000  Level FlightAware ADS-B
Thu 06:23:13 AM 5.4290 -75.1130 307° West 423 487 40,000  Level FlightAware ADS-B
Thu 06:23:53 AM 5.4770 -75.1760 307° West 424 488 40,000  Level FlightAware ADS-B
Thu 06:24:37 AM 5.5300 -75.2450 308° West 425 489 40,000  Level FlightAware ADS-B
Thu 06:25:19 AM 5.5800 -75.3110 307° West 425 489 40,000  Level FlightAware ADS-B
Thu 06:26:11 AM 5.6350 -75.3840 307° West 425 489 40,000  Level FlightAware ADS-B
Thu 06:26:56 AM 5.6960 -75.4620 308° West 424 488 40,000  Level FlightAware ADS-B
Thu 06:28:09 AM 5.7770 -75.5690 307° West 423 487 40,000  Level FlightAware ADS-B
Thu 06:28:46 AM 5.8140 -75.6190 307° West 423 487 40,000  Level FlightAware ADS-B
Thu 06:29:35 AM 5.8630 -75.6840 307° West 423 487 40,000  Level FlightAware ADS-B
Thu 06:30:31 AM 5.9190 -75.7590 307° West 423 487 40,000  Level FlightAware ADS-B
Thu 06:31:21 AM 5.9690 -75.8260 307° West 423 487 40,000  Level FlightAware ADS-B
Thu 06:32:10 AM 6.0180 -75.8910 307° West 423 487 40,000  Level FlightAware ADS-B
Thu 06:32:45 AM 6.0530 -75.9380 307° West 423 487 40,000  Level FlightAware ADS-B
Thu 06:33:24 AM 6.0920 -75.9900 307° West 423 487 40,000  Level FlightAware ADS-B
Thu 06:34:13 AM 6.1410 -76.0550 307° West 423 487 40,000  Level FlightAware ADS-B
Thu 06:34:59 AM 6.1870 -76.1170 307° West 423 487 40,000  Level FlightAware ADS-B
Thu 06:36:19 AM 6.2670 -76.2240 307° West 423 487 40,000  Level FlightAware ADS-B
Thu 06:36:56 AM 6.3040 -76.2730 307° West 423 487 40,000  Level FlightAware ADS-B
Thu 06:39:00 AM 6.4530 -76.4389 312° West  Level Estimated
Thu 06:40:00 AM 6.5251 -76.5193 312° West  Level Estimated
Thu 06:41:00 AM 6.5972 -76.5996 312° West  Level Estimated
Thu 06:42:00 AM 6.6693 -76.6800 312° West  Level Estimated
Thu 06:43:00 AM 6.7414 -76.7604 312° West  Level Estimated
Thu 06:44:00 AM 6.8134 -76.8408 312° West  Level Estimated
Thu 06:45:00 AM 6.8854 -76.9213 312° West  Level Estimated
Thu 06:46:00 AM 6.9574 -77.0017 312° West  Level Estimated
Thu 06:47:00 AM 7.0294 -77.0822 312° West  Level Estimated
Thu 06:48:00 AM 7.1014 -77.1628 312° West  Level Estimated
Thu 06:49:00 AM 7.1734 -77.2433 312° West  Level Estimated
Thu 06:50:00 AM 7.2454 -77.3239 312° West  Level Estimated
Thu 06:51:00 AM 7.3173 -77.4045 312° West  Level Estimated
Thu 06:52:00 AM 7.3893 -77.4851 312° West  Level Estimated
Thu 06:53:00 AM 7.4612 -77.5658 312° West  Level Estimated
Thu 06:54:00 AM 7.5331 -77.6464 312° West  Level Estimated
Thu 06:55:00 AM 7.6050 -77.7271 312° West  Level Estimated
Thu 06:56:00 AM 7.6769 -77.8079 312° West  Level Estimated
Thu 06:57:00 AM 7.7487 -77.8886 312° West  Level Estimated
Thu 06:58:00 AM 7.8206 -77.9694 312° West  Level Estimated
Thu 06:59:00 AM 7.8924 -78.0502 312° West  Level Estimated
Thu 07:00:00 AM 7.9642 -78.1311 312° West  Level Estimated
Thu 07:01:00 AM 8.0360 -78.2119 312° West  Level Estimated
Thu 07:02:00 AM 8.1078 -78.2928 312° West  Level Estimated
Thu 07:03:00 AM 8.1796 -78.3737 312° West  Level Estimated
Thu 07:04:00 AM 8.2513 -78.4547 312° West  Level Estimated
Thu 07:05:00 AM 8.3230 -78.5357 312° West  Level Estimated
Thu 07:06:00 AM 8.3948 -78.6167 312° West  Level Estimated
Thu 07:07:00 AM 8.4665 -78.6977 312° West  Level Estimated
Thu 07:08:00 AM 8.5382 -78.7788 312° West  Level Estimated
Thu 07:09:00 AM 8.6098 -78.8599 312° West  Level Estimated
Thu 07:10:00 AM 8.6815 -78.9411 312° West  Level Estimated
Thu 07:11:00 AM 8.7531 -79.0222 312° West  Level Estimated
Thu 07:12:00 AM 8.8247 -79.1034 312° West  Level Estimated
Thu 07:13:00 AM 8.8963 -79.1847 312° West  Level Estimated
Thu 07:14:00 AM 8.9679 -79.2659 312° West  Level Estimated
Thu 07:15:00 AM 9.0395 -79.3472 312° West  Level Estimated
Thu 07:16:00 AM 9.0714 -79.3835 312° West  Level Estimated
Thu 07:17:00 AM 9.0714 -79.3835 323° Northwest  Level Estimated
Thu 07:18:00 AM 9.0714 -79.3835 323° Northwest  Level Estimated
Thu 07:19:00 AM 9.0714 -79.3835 323° Northwest  Level Estimated
Thu 07:20:00 AM 9.0714 -79.3835 323° Northwest  Level Estimated
Thu 07:21:00 AM 9.0714 -79.3835 323° Northwest  Level Estimated
Thu 07:22:00 AM 9.0714 -79.3835 323° Northwest  Level Estimated
Thu 07:23:00 AM 9.0714 -79.3835 323° Northwest  Level Estimated
Thu 07:24:00 AM 9.0714 -79.3835 323° Northwest  Level Estimated
Thu 07:25:00 AM 9.0714 -79.3835 323° Northwest  Level Estimated
Thu 07:26:00 AM 9.0714 -79.3835 323° Northwest  Level Estimated
Thu 07:27:00 AM 9.0714 -79.3835 323° Northwest  Level Estimated
Thu 07:28:00 AM 9.0714 -79.3835 323° Northwest  Level Estimated
Thu 07:29:00 AM 9.0714 -79.3835 323° Northwest  Level Estimated
Thu 07:30:00 AM 9.0714 -79.3835 323° Northwest  Level Estimated
Thu 07:31:00 AM 9.0714 -79.3835 323° Northwest  Level Estimated
Thu 07:32:00 AM 9.0714 -79.3835 323° Northwest  Level Estimated
Thu 07:33:00 AM 9.0714 -79.3835 323° Northwest  Level Estimated
Thu 07:34:00 AM 9.0714 -79.3835 323° Northwest  Level Estimated

Login

Don't have an account? Register now (free) for customized features, flight alerts, and more!